Terminal Aerodrome Forecast
Issued by NWS

Home | Current Version | Previous Version | Text Only | Print | Product List | Glossary On
Versions: 1 2 3 4 5 6 7 8 9 10 11 12 13 14 15 16 17 18 19 20 21 22 23 24 25 26 27 28 29 30 31 32 33 34 35 36 37 38 39 40 41
000
FTAK31 PANC 162342
TAFACV
TAF
PACV 162342Z 1700/1724 13007KT P6SM -RA SCT008 BKN020 OVC050
      TEMPO 1700/1703 3SM -RA BR BKN010 OVC020
     FM170900 08003KT P6SM -RA BKN025 OVC050=

USA.gov is the U.S. government's official web portal to all federal, state and local government web resources and services.